Time;durP1;ratioP1;P1;durP2;ratioP2;P2;SDS_P1;SDS_P2;PMS_P1;PMS_P2;Temp;Humidity;BMP_temperature;BMP_pressure;BME280_temperature;BME280_humidity;BME280_pressure;Samples;Min_cycle;Max_cycle;Signal;HPM_P1;HPM_P2
2023/12/13 00:02:05;;;;;;;3.50;0.93;;;11.10;86.30;;;;;;4891492;29;20485;-77
2023/12/13 00:04:33;;;;;;;4.23;1.10;;;11.10;86.30;;;;;;4891185;29;20484;-77
2023/12/13 00:07:01;;;;;;;4.07;1.13;;;11.10;86.30;;;;;;4907405;29;20467;-77
2023/12/13 00:09:30;;;;;;;3.37;1.17;;;11.10;86.30;;;;;;4896832;29;20482;-77
2023/12/13 00:11:58;;;;;;;3.63;1.20;;;11.10;86.30;;;;;;4895015;29;20476;-77
2023/12/13 00:14:26;;;;;;;3.70;0.90;;;11.00;86.30;;;;;;4892674;29;20472;-77
2023/12/13 00:16:54;;;;;;;4.40;1.50;;;11.00;86.40;;;;;;4905066;29;20462;-77
2023/12/13 00:19:22;;;;;;;4.43;1.30;;;11.00;86.40;;;;;;4890679;29;20462;-77
2023/12/13 00:21:50;;;;;;;4.50;1.57;;;11.00;86.40;;;;;;4891443;29;20478;-77
2023/12/13 00:24:18;;;;;;;8.90;2.13;;;10.90;86.40;;;;;;4897021;29;20460;-77
2023/12/13 00:26:49;;;;;;;3.90;1.23;;;10.90;86.40;;;;;;4890846;29;20466;-77
2023/12/13 00:29:17;;;;;;;3.90;1.20;;;10.90;86.30;;;;;;4892417;29;21139;-76
2023/12/13 00:31:45;;;;;;;3.63;1.47;;;10.90;86.30;;;;;;4892513;29;21410;-76
2023/12/13 00:34:12;;;;;;;5.30;1.33;;;10.90;86.30;;;;;;4891538;29;20462;-78
2023/12/13 00:36:41;;;;;;;4.83;1.73;;;10.90;86.40;;;;;;4893716;29;20465;-78
2023/12/13 00:39:09;;;;;;;5.93;1.47;;;10.90;86.30;;;;;;4900751;29;20492;-77
2023/12/13 00:41:37;;;;;;;6.40;2.43;;;10.90;86.30;;;;;;4891529;29;21133;-77
2023/12/13 00:44:06;;;;;;;5.23;1.70;;;10.90;86.20;;;;;;4890947;29;20462;-77
2023/12/13 00:46:34;;;;;;;6.50;1.90;;;10.90;86.20;;;;;;4881189;29;20464;-77
2023/12/13 00:49:02;;;;;;;4.57;1.57;;;10.90;86.00;;;;;;4887108;29;20481;-76
2023/12/13 00:51:30;;;;;;;4.00;1.40;;;10.90;85.90;;;;;;4892113;29;20476;-77
2023/12/13 00:53:58;;;;;;;5.00;1.60;;;10.90;86.00;;;;;;4892781;29;20484;-76
2023/12/13 00:56:30;;;;;;;5.83;1.80;;;10.90;85.90;;;;;;4888645;29;20457;-77
2023/12/13 00:58:58;;;;;;;6.13;1.63;;;10.80;85.90;;;;;;4891851;29;20469;-78
2023/12/13 01:01:27;;;;;;;5.33;1.73;;;10.80;85.80;;;;;;4893455;29;20979;-78
2023/12/13 01:03:56;;;;;;;4.30;1.50;;;10.80;86.00;;;;;;4888998;29;20519;-78
2023/12/13 01:06:24;;;;;;;8.30;1.60;;;10.80;86.00;;;;;;4889195;29;20525;-76
2023/12/13 01:08:52;;;;;;;5.33;1.90;;;10.80;86.00;;;;;;4888424;29;20476;-75
2023/12/13 01:11:23;;;;;;;4.60;1.90;;;10.80;86.10;;;;;;4891150;29;20462;-75
2023/12/13 01:13:51;;;;;;;3.97;1.50;;;10.80;86.00;;;;;;4890543;29;20466;-76
2023/12/13 01:16:19;;;;;;;4.43;1.73;;;10.80;85.90;;;;;;4908460;29;20556;-76
2023/12/13 01:18:49;;;;;;;4.87;1.50;;;10.80;85.90;;;;;;4895514;29;20513;-76
2023/12/13 01:21:18;;;;;;;5.97;1.87;;;10.80;85.90;;;;;;4891409;29;20536;-76
2023/12/13 01:23:46;;;;;;;8.03;1.80;;;10.80;85.80;;;;;;4894239;29;20461;-76
2023/12/13 01:26:14;;;;;;;5.93;1.30;;;10.80;85.80;;;;;;4894477;29;20473;-76
2023/12/13 01:28:42;;;;;;;6.70;1.93;;;10.80;85.80;;;;;;4891480;29;20477;-76
2023/12/13 01:31:10;;;;;;;6.30;2.10;;;10.80;85.80;;;;;;4894157;29;20541;-76
2023/12/13 01:33:39;;;;;;;10.27;2.33;;;10.80;85.90;;;;;;4894606;29;20462;-76
2023/12/13 01:36:09;;;;;;;6.50;2.30;;;10.90;85.90;;;;;;4895390;29;20468;-75
2023/12/13 01:38:37;;;;;;;5.43;2.20;;;10.90;85.90;;;;;;4890347;29;20529;-76
2023/12/13 01:41:06;;;;;;;6.03;1.80;;;10.90;85.90;;;;;;4891773;29;20482;-76
2023/12/13 01:43:41;;;;;;;7.77;2.17;;;10.90;85.90;;;;;;4891168;29;20461;-75
2023/12/13 01:46:11;;;;;;;5.50;1.60;;;10.90;85.80;;;;;;4891001;29;20463;-76
2023/12/13 01:48:40;;;;;;;5.13;1.90;;;10.90;85.80;;;;;;4894206;29;21109;-76
2023/12/13 01:51:10;;;;;;;6.23;1.60;;;10.90;85.80;;;;;;4893492;29;20461;-76
2023/12/13 01:53:40;;;;;;;7.97;2.23;;;10.90;85.80;;;;;;4906652;29;20565;-75
2023/12/13 01:56:10;;;;;;;7.30;2.10;;;10.90;85.80;;;;;;4906264;29;20496;-76
2023/12/13 01:58:40;;;;;;;6.77;2.50;;;10.90;85.70;;;;;;4890202;29;20807;-76
2023/12/13 02:01:09;;;;;;;8.50;2.40;;;10.90;85.70;;;;;;4890037;29;20493;-76
2023/12/13 02:03:42;;;;;;;7.00;2.27;;;10.90;85.80;;;;;;4893226;29;20457;-77
2023/12/13 02:06:12;;;;;;;8.80;2.53;;;10.90;85.70;;;;;;4894829;29;20450;-78
2023/12/13 02:08:40;;;;;;;8.80;2.70;;;10.90;85.70;;;;;;4910345;29;20481;-77
2023/12/13 02:11:08;;;;;;;5.33;1.80;;;10.90;85.80;;;;;;4895159;29;20962;-77
2023/12/13 02:13:38;;;;;;;10.57;2.87;;;10.90;85.80;;;;;;4892471;29;20481;-77
2023/12/13 02:16:07;;;;;;;7.27;2.70;;;10.90;85.80;;;;;;4894560;29;20584;-76
2023/12/13 02:18:36;;;;;;;9.77;2.43;;;10.90;85.70;;;;;;4890963;29;20493;-76
2023/12/13 02:21:04;;;;;;;5.90;2.00;;;10.90;85.70;;;;;;4889729;29;20490;-76
2023/12/13 02:23:34;;;;;;;10.07;2.50;;;10.80;85.70;;;;;;4888852;29;20450;-76
2023/12/13 02:26:05;;;;;;;12.63;2.30;;;10.90;85.70;;;;;;4888022;29;20554;-76
2023/12/13 02:28:33;;;;;;;6.70;1.90;;;10.80;85.60;;;;;;4888696;29;20565;-76
2023/12/13 02:31:03;;;;;;;7.30;2.50;;;10.80;85.60;;;;;;4892412;29;20478;-78
2023/12/13 02:33:31;;;;;;;8.60;1.57;;;10.80;85.80;;;;;;4892587;29;20541;-78
2023/12/13 02:36:01;;;;;;;8.63;2.47;;;10.80;85.60;;;;;;4889330;29;20580;-78
2023/12/13 02:38:29;;;;;;;9.00;1.77;;;10.80;85.70;;;;;;4890114;29;20533;-78
2023/12/13 02:40:58;;;;;;;5.67;1.40;;;10.80;85.70;;;;;;4896680;29;20883;-78
2023/12/13 02:43:27;;;;;;;14.13;1.60;;;10.80;85.70;;;;;;4891893;29;20462;-78
2023/12/13 02:45:56;;;;;;;7.33;1.37;;;10.80;85.70;;;;;;4888637;29;20535;-76
2023/12/13 02:48:24;;;;;;;7.87;1.47;;;10.70;85.70;;;;;;4891728;29;20919;-76
2023/12/13 02:50:53;;;;;;;10.53;2.50;;;10.80;85.70;;;;;;4896697;29;20533;-76
2023/12/13 02:53:22;;;;;;;7.97;1.97;;;10.70;85.70;;;;;;4891404;29;20501;-76
2023/12/13 02:55:50;;;;;;;9.13;2.50;;;10.70;85.60;;;;;;4905878;29;20749;-78
2023/12/13 02:58:20;;;;;;;6.00;1.43;;;10.70;85.60;;;;;;4894638;29;20573;-77
2023/12/13 03:00:48;;;;;;;9.23;1.90;;;10.70;85.70;;;;;;4892503;29;22552;-77
2023/12/13 03:03:16;;;;;;;6.40;1.33;;;10.70;85.70;;;;;;4909039;29;20489;-77
2023/12/13 03:05:44;;;;;;;6.57;1.87;;;10.70;85.70;;;;;;4896415;29;20466;-77
2023/12/13 03:08:16;;;;;;;6.60;1.77;;;10.70;85.60;;;;;;4892307;29;20946;-77
2023/12/13 03:10:44;;;;;;;5.70;1.50;;;10.70;85.60;;;;;;4887433;29;20956;-77
2023/12/13 03:13:12;;;;;;;7.27;1.83;;;10.70;85.50;;;;;;4894453;29;20458;-77
2023/12/13 03:15:41;;;;;;;12.03;2.40;;;10.70;85.50;;;;;;4891938;29;20558;-78
2023/12/13 03:18:09;;;;;;;9.00;1.70;;;10.70;85.50;;;;;;4894360;29;20946;-78
2023/12/13 03:20:37;;;;;;;4.40;1.80;;;10.60;85.40;;;;;;4892929;29;20450;-78
2023/12/13 03:23:07;;;;;;;6.93;1.93;;;10.60;85.40;;;;;;4891728;29;20486;-78
2023/12/13 03:25:35;;;;;;;8.23;1.80;;;10.60;85.40;;;;;;4894556;29;20470;-78
2023/12/13 03:28:04;;;;;;;11.77;2.20;;;10.60;85.40;;;;;;4890450;29;20458;-77
2023/12/13 03:30:32;;;;;;;6.30;1.80;;;10.60;85.30;;;;;;4894400;29;21030;-77
2023/12/13 03:33:01;;;;;;;8.40;1.80;;;10.50;85.30;;;;;;4891856;29;20451;-77
2023/12/13 03:35:30;;;;;;;4.77;1.33;;;10.50;85.20;;;;;;4907611;29;20458;-77
2023/12/13 03:37:57;;;;;;;8.83;1.50;;;10.50;85.20;;;;;;4892964;29;20462;-77
2023/12/13 03:40:26;;;;;;;5.73;1.50;;;10.50;85.30;;;;;;4891298;29;20470;-77
2023/12/13 03:42:54;;;;;;;5.90;1.37;;;10.50;85.30;;;;;;4896048;29;20473;-77
2023/12/13 03:45:23;;;;;;;8.87;1.67;;;10.40;85.20;;;;;;4889666;29;20458;-77
2023/12/13 03:47:51;;;;;;;8.63;2.63;;;10.40;85.10;;;;;;4908298;29;20489;-77
2023/12/13 03:50:21;;;;;;;14.10;2.43;;;10.40;85.20;;;;;;4907884;29;20467;-77
2023/12/13 03:52:49;;;;;;;4.97;1.50;;;10.40;85.10;;;;;;4892963;29;20501;-77
2023/12/13 03:55:18;;;;;;;4.63;1.50;;;10.40;85.10;;;;;;4905027;29;20454;-77
2023/12/13 03:57:46;;;;;;;4.97;1.67;;;10.40;85.00;;;;;;4889585;29;20465;-77
2023/12/13 04:00:14;;;;;;;6.33;1.60;;;10.40;85.10;;;;;;4891392;29;20735;-76
2023/12/13 04:02:43;;;;;;;6.43;1.87;;;10.40;85.00;;;;;;4891764;29;20605;-76
2023/12/13 04:05:11;;;;;;;7.50;1.93;;;10.40;84.90;;;;;;4893154;29;21062;-76
2023/12/13 04:07:40;;;;;;;8.83;1.40;;;10.30;85.00;;;;;;4897174;29;20458;-77
2023/12/13 04:10:09;;;;;;;4.87;1.77;;;10.30;85.00;;;;;;4906630;29;20510;-77
2023/12/13 04:12:37;;;;;;;4.17;1.40;;;10.30;85.00;;;;;;4898760;29;20453;-77
2023/12/13 04:15:06;;;;;;;5.40;1.40;;;10.40;85.00;;;;;;4897178;29;20476;-77
2023/12/13 04:17:34;;;;;;;5.47;1.70;;;10.40;85.00;;;;;;4891117;29;20470;-77
2023/12/13 04:20:03;;;;;;;4.10;1.77;;;10.40;85.00;;;;;;4889968;29;20460;-77
2023/12/13 04:22:31;;;;;;;7.30;1.70;;;10.40;85.00;;;;;;4889925;29;20655;-77
2023/12/13 04:25:00;;;;;;;11.23;2.40;;;10.40;84.90;;;;;;4893034;29;20873;-77
2023/12/13 04:27:28;;;;;;;8.67;2.80;;;10.40;84.90;;;;;;4889463;29;20469;-77
2023/12/13 04:29:57;;;;;;;5.97;1.70;;;10.40;85.00;;;;;;4890774;29;20782;-77
2023/12/13 04:32:26;;;;;;;8.10;1.80;;;10.40;84.90;;;;;;4892980;29;20488;-76
2023/12/13 04:34:54;;;;;;;6.83;1.90;;;10.40;84.90;;;;;;4893169;29;20497;-77
2023/12/13 04:37:22;;;;;;;9.93;2.23;;;10.40;85.00;;;;;;4894070;29;20528;-77
2023/12/13 04:39:50;;;;;;;8.00;1.80;;;10.40;85.00;;;;;;4898713;29;20503;-77
2023/12/13 04:42:19;;;;;;;5.57;1.60;;;10.40;85.00;;;;;;4890981;29;20463;-77
2023/12/13 04:44:47;;;;;;;11.67;1.90;;;10.40;84.90;;;;;;4906290;29;20982;-77
2023/12/13 04:47:17;;;;;;;5.00;1.40;;;10.40;84.90;;;;;;4891835;29;20461;-77
2023/12/13 04:49:45;;;;;;;5.43;1.57;;;10.40;85.00;;;;;;4891138;29;20476;-76
2023/12/13 04:52:13;;;;;;;6.90;1.57;;;10.40;85.00;;;;;;4892174;29;20485;-76
2023/12/13 04:54:42;;;;;;;9.50;1.80;;;10.40;85.00;;;;;;4908890;29;20485;-76
2023/12/13 04:57:10;;;;;;;7.50;1.60;;;10.40;85.00;;;;;;4909464;29;20453;-77
2023/12/13 04:59:41;;;;;;;7.20;1.87;;;10.40;85.00;;;;;;4889284;29;20465;-77
2023/12/13 05:02:09;;;;;;;6.20;1.53;;;10.40;85.00;;;;;;4893812;29;21364;-77
2023/12/13 05:04:37;;;;;;;9.97;1.57;;;10.50;85.00;;;;;;4909854;29;20493;-77
2023/12/13 05:07:05;;;;;;;7.40;1.80;;;10.50;84.90;;;;;;4891463;29;20823;-77
2023/12/13 05:09:33;;;;;;;8.47;1.60;;;10.50;84.90;;;;;;4891875;29;20480;-77
2023/12/13 05:12:03;;;;;;;7.33;1.70;;;10.50;84.80;;;;;;4897058;29;20468;-77
2023/12/13 05:14:31;;;;;;;7.47;1.80;;;10.40;84.80;;;;;;4890957;29;20463;-77
2023/12/13 05:17:00;;;;;;;4.50;1.63;;;10.40;84.80;;;;;;4894573;29;20469;-77
2023/12/13 05:19:28;;;;;;;8.33;1.60;;;10.40;84.80;;;;;;4912044;29;20466;-77
2023/12/13 05:21:56;;;;;;;7.50;2.07;;;10.40;84.90;;;;;;4893531;29;20462;-77
2023/12/13 05:24:24;;;;;;;6.67;1.73;;;10.40;84.80;;;;;;4895750;29;20494;-77
2023/12/13 05:26:52;;;;;;;5.10;2.20;;;10.40;84.80;;;;;;4894755;29;20935;-77
2023/12/13 05:29:21;;;;;;;4.87;1.73;;;10.40;84.80;;;;;;4895832;29;20459;-77
2023/12/13 05:31:49;;;;;;;6.83;1.57;;;10.40;84.70;;;;;;4896918;29;20492;-77
2023/12/13 05:34:18;;;;;;;5.83;1.33;;;10.30;84.70;;;;;;4896595;29;20560;-77
2023/12/13 05:36:48;;;;;;;4.63;1.70;;;10.30;84.60;;;;;;4892793;29;20480;-77
2023/12/13 05:39:17;;;;;;;5.03;1.63;;;10.20;84.60;;;;;;4901180;29;21157;-77
2023/12/13 05:41:45;;;;;;;6.53;1.70;;;10.20;84.70;;;;;;4891942;29;20458;-77
2023/12/13 05:44:13;;;;;;;8.00;1.60;;;10.20;84.60;;;;;;4889741;29;20490;-77
2023/12/13 05:46:41;;;;;;;5.30;1.80;;;10.10;84.70;;;;;;4887224;29;20475;-77
2023/12/13 05:49:09;;;;;;;8.27;2.17;;;10.10;84.80;;;;;;4894787;29;20450;-77
2023/12/13 05:51:41;;;;;;;14.07;1.47;;;10.10;84.90;;;;;;4891905;29;20552;-77
2023/12/13 05:54:09;;;;;;;4.90;1.73;;;10.10;85.00;;;;;;4893656;29;20561;-77
2023/12/13 05:56:37;;;;;;;5.93;1.30;;;10.10;84.90;;;;;;4892977;29;20481;-77
2023/12/13 05:59:05;;;;;;;8.07;2.00;;;10.10;84.80;;;;;;4893475;29;20794;-77
2023/12/13 06:01:34;;;;;;;6.93;1.80;;;10.20;84.90;;;;;;4891440;29;20481;-77
2023/12/13 06:04:02;;;;;;;9.93;1.73;;;10.20;84.80;;;;;;4893537;29;20500;-77
2023/12/13 06:06:30;;;;;;;9.40;1.77;;;10.20;84.90;;;;;;4896293;29;20474;-77
2023/12/13 06:08:59;;;;;;;8.00;2.07;;;10.20;84.90;;;;;;4908203;29;20486;-77
2023/12/13 06:11:28;;;;;;;5.70;1.70;;;10.20;84.80;;;;;;4910234;29;20465;-77
2023/12/13 06:13:57;;;;;;;8.60;2.13;;;10.20;84.70;;;;;;4897720;29;20533;-77
2023/12/13 06:16:25;;;;;;;10.97;2.00;;;10.20;84.70;;;;;;4886793;29;20457;-77
2023/12/13 06:18:53;;;;;;;9.57;1.90;;;10.20;84.80;;;;;;4892072;29;20531;-77
2023/12/13 06:21:21;;;;;;;6.33;1.77;;;10.20;84.80;;;;;;4893674;29;20529;-77
2023/12/13 06:23:49;;;;;;;4.60;2.03;;;10.20;84.80;;;;;;4892670;29;20475;-77
2023/12/13 06:26:18;;;;;;;8.67;2.30;;;10.20;84.80;;;;;;4892425;29;20465;-77
2023/12/13 06:28:46;;;;;;;11.07;3.23;;;10.30;84.80;;;;;;4892018;29;20592;-77
2023/12/13 06:31:14;;;;;;;9.10;2.63;;;10.30;84.80;;;;;;4895504;29;20490;-77
2023/12/13 06:33:42;;;;;;;8.50;2.13;;;10.30;84.80;;;;;;4894703;29;20458;-77
2023/12/13 06:36:10;;;;;;;5.57;3.20;;;10.30;84.80;;;;;;4897924;29;20474;-77
2023/12/13 06:38:38;;;;;;;7.63;3.37;;;10.30;84.70;;;;;;4897860;29;20549;-77
2023/12/13 06:41:06;;;;;;;6.77;2.77;;;10.20;84.70;;;;;;4908521;29;20466;-77
2023/12/13 06:43:36;;;;;;;10.30;3.40;;;10.20;84.80;;;;;;4892420;29;20765;-77
2023/12/13 06:46:04;;;;;;;7.27;2.90;;;10.20;84.70;;;;;;4894220;29;20469;-78
2023/12/13 06:48:32;;;;;;;8.20;3.67;;;10.20;84.70;;;;;;4895461;29;20470;-77
2023/12/13 06:51:00;;;;;;;6.30;2.90;;;10.20;84.70;;;;;;4893377;29;20453;-77
2023/12/13 06:53:29;;;;;;;5.63;2.60;;;10.20;84.60;;;;;;4905775;29;20462;-77
2023/12/13 06:55:58;;;;;;;8.63;2.27;;;10.10;84.70;;;;;;4892899;29;20511;-76
2023/12/13 06:58:26;;;;;;;5.40;2.30;;;10.10;84.80;;;;;;4892044;29;20817;-75
2023/12/13 07:00:56;;;;;;;12.27;3.40;;;10.10;84.80;;;;;;4890882;29;21040;-75
2023/12/13 07:03:24;;;;;;;8.47;3.50;;;10.10;84.90;;;;;;4894318;29;20458;-75
2023/12/13 07:05:52;;;;;;;6.37;2.40;;;10.10;84.90;;;;;;4890731;29;21089;-75
2023/12/13 07:08:20;;;;;;;12.43;3.73;;;10.10;84.80;;;;;;4896795;29;20466;-75
2023/12/13 07:10:48;;;;;;;17.30;5.30;;;10.10;84.90;;;;;;4892157;29;20457;-76
2023/12/13 07:13:16;;;;;;;22.57;8.30;;;10.10;84.90;;;;;;4890868;29;20548;-75
2023/12/13 07:15:44;;;;;;;12.60;5.27;;;10.10;84.80;;;;;;4895274;29;21018;-75
2023/12/13 07:18:14;;;;;;;8.27;2.70;;;10.10;84.80;;;;;;4891368;29;20553;-75
2023/12/13 07:20:42;;;;;;;6.67;3.00;;;10.10;84.90;;;;;;4907611;29;20474;-75
2023/12/13 07:23:10;;;;;;;7.40;3.07;;;10.10;84.90;;;;;;4893403;29;20798;-75
2023/12/13 07:25:39;;;;;;;6.43;2.77;;;10.10;84.90;;;;;;4890476;29;20485;-75
2023/12/13 07:28:08;;;;;;;7.80;2.80;;;10.10;84.90;;;;;;4891550;29;20565;-75
2023/12/13 07:30:36;;;;;;;6.67;2.13;;;10.10;84.90;;;;;;4892319;29;20489;-75
2023/12/13 07:33:08;;;;;;;10.93;2.50;;;10.10;84.80;;;;;;4892918;29;20509;-76
2023/12/13 07:35:47;;;;;;;5.77;2.27;;;10.10;84.70;;;;;;4891319;29;20457;-75
2023/12/13 07:38:15;;;;;;;8.17;2.50;;;10.20;84.80;;;;;;4908775;29;20521;-75
2023/12/13 07:40:46;;;;;;;11.77;2.73;;;10.20;84.80;;;;;;4890263;29;20782;-75
2023/12/13 07:43:14;;;;;;;6.10;2.20;;;10.20;84.80;;;;;;4907802;29;20490;-75
2023/12/13 07:45:43;;;;;;;8.50;2.50;;;10.20;84.80;;;;;;4906036;29;20482;-76
2023/12/13 07:48:11;;;;;;;6.97;2.30;;;10.20;84.80;;;;;;4896236;29;21030;-76
2023/12/13 07:50:55;;;;;;;8.73;2.57;;;10.20;84.90;;;;;;4891556;29;20461;-75
2023/12/13 07:53:23;;;;;;;6.57;2.30;;;10.20;84.90;;;;;;4891198;29;20461;-75
2023/12/13 07:55:51;;;;;;;9.13;2.93;;;10.20;84.90;;;;;;4893016;29;20533;-75
2023/12/13 07:58:19;;;;;;;8.90;2.60;;;10.20;84.90;;;;;;4891567;29;20473;-75
2023/12/13 08:00:48;;;;;;;5.67;2.20;;;10.20;84.90;;;;;;4893047;29;20538;-76
2023/12/13 08:03:16;;;;;;;6.53;2.30;;;10.20;84.90;;;;;;4891977;29;20995;-76
2023/12/13 08:05:44;;;;;;;11.97;3.50;;;10.20;84.90;;;;;;4892675;29;20842;-75
2023/12/13 08:08:15;;;;;;;8.47;3.40;;;10.20;84.90;;;;;;4906727;29;20513;-75
2023/12/13 08:10:46;;;;;;;9.10;3.17;;;10.20;84.90;;;;;;4896787;29;20939;-76
2023/12/13 08:13:15;;;;;;;15.27;7.43;;;10.20;84.90;;;;;;4891735;29;20485;-76
2023/12/13 08:15:44;;;;;;;13.20;5.37;;;10.20;85.00;;;;;;4893463;29;20557;-75
2023/12/13 08:18:12;;;;;;;10.93;4.43;;;10.30;84.90;;;;;;4893513;29;20542;-75
2023/12/13 08:20:41;;;;;;;9.93;3.17;;;10.30;84.90;;;;;;4890728;29;20474;-76
2023/12/13 08:23:09;;;;;;;8.17;2.60;;;10.30;84.90;;;;;;4892606;29;20465;-75
2023/12/13 08:25:38;;;;;;;9.80;3.00;;;10.30;84.90;;;;;;4888651;29;20485;-76
2023/12/13 08:28:07;;;;;;;10.50;2.60;;;10.30;84.90;;;;;;4895702;29;20469;-75
2023/12/13 08:30:34;;;;;;;9.17;3.10;;;10.30;84.90;;;;;;4896630;29;20482;-75
2023/12/13 08:33:03;;;;;;;7.80;2.83;;;10.30;84.90;;;;;;4895087;29;20552;-75
2023/12/13 08:35:31;;;;;;;9.43;3.30;;;10.30;85.00;;;;;;4896136;29;20545;-75
2023/12/13 08:37:59;;;;;;;9.03;3.57;;;10.30;85.00;;;;;;4896600;29;20505;-76
2023/12/13 08:40:27;;;;;;;7.20;3.30;;;10.30;85.00;;;;;;4887038;29;20962;-76
2023/12/13 08:42:56;;;;;;;8.10;3.63;;;10.30;85.00;;;;;;4896075;29;20500;-76
2023/12/13 08:45:24;;;;;;;23.20;11.30;;;10.30;85.00;;;;;;4891487;29;21073;-75
2023/12/13 08:47:52;;;;;;;9.80;4.90;;;10.30;85.00;;;;;;4896394;29;20481;-75
2023/12/13 08:50:20;;;;;;;229.17;88.07;;;10.30;85.00;;;;;;4895870;29;20556;-75
2023/12/13 08:52:48;;;;;;;124.77;54.63;;;10.30;85.00;;;;;;4893332;29;20469;-75
2023/12/13 08:55:16;;;;;;;91.30;36.10;;;10.30;85.10;;;;;;4896078;29;20563;-75
2023/12/13 08:57:44;;;;;;;18.00;8.17;;;10.40;85.10;;;;;;4889617;29;20507;-75
2023/12/13 09:00:15;;;;;;;43.60;17.37;;;10.30;85.10;;;;;;4893194;29;20932;-75
2023/12/13 09:02:43;;;;;;;92.03;35.63;;;10.40;85.10;;;;;;4893713;29;20532;-76
2023/12/13 09:05:11;;;;;;;34.70;15.40;;;10.40;85.20;;;;;;4892672;29;20478;-75
2023/12/13 09:07:39;;;;;;;31.57;11.10;;;10.40;85.20;;;;;;4895422;29;20477;-75
2023/12/13 09:10:09;;;;;;;14.40;6.67;;;10.40;85.20;;;;;;4895472;29;20465;-75
2023/12/13 09:12:37;;;;;;;17.07;7.67;;;10.40;85.20;;;;;;4895918;29;20468;-76
2023/12/13 09:15:07;;;;;;;9.27;4.20;;;10.40;85.20;;;;;;4891624;29;20462;-75
2023/12/13 09:17:36;;;;;;;11.37;4.07;;;10.40;85.30;;;;;;4892331;29;20473;-75
2023/12/13 09:20:09;;;;;;;10.43;4.00;;;10.40;85.30;;;;;;4896326;29;20464;-76
2023/12/13 09:22:37;;;;;;;8.97;3.10;;;10.40;85.30;;;;;;4893612;29;20474;-75
2023/12/13 09:25:05;;;;;;;7.97;3.50;;;10.40;85.30;;;;;;4895298;29;20497;-75
2023/12/13 09:27:33;;;;;;;9.93;3.37;;;10.40;85.20;;;;;;4894755;29;20457;-75
2023/12/13 09:30:02;;;;;;;8.70;3.00;;;10.40;85.30;;;;;;4893363;29;20621;-75
2023/12/13 09:32:33;;;;;;;8.40;3.40;;;10.50;85.20;;;;;;4893560;29;20509;-76
2023/12/13 09:35:03;;;;;;;9.73;4.40;;;10.40;85.30;;;;;;4900574;29;20623;-76
2023/12/13 09:37:31;;;;;;;11.47;4.13;;;10.50;85.30;;;;;;4893303;29;20548;-75
2023/12/13 09:40:00;;;;;;;6.33;3.67;;;10.50;85.30;;;;;;4890186;29;20489;-76
2023/12/13 09:42:30;;;;;;;8.50;3.63;;;10.50;85.30;;;;;;4895516;29;20457;-75
2023/12/13 09:45:03;;;;;;;7.93;3.80;;;10.50;85.40;;;;;;4892903;29;21200;-75
2023/12/13 09:47:33;;;;;;;7.43;3.30;;;10.50;85.40;;;;;;4907436;29;20469;-75
2023/12/13 09:50:03;;;;;;;7.20;3.43;;;10.50;85.40;;;;;;4907932;29;20490;-75
2023/12/13 09:52:34;;;;;;;5.33;3.17;;;10.50;85.40;;;;;;4894659;29;20466;-76
2023/12/13 09:55:06;;;;;;;6.13;2.70;;;10.50;85.40;;;;;;4893045;29;20465;-75
2023/12/13 09:57:35;;;;;;;11.33;3.13;;;10.50;85.40;;;;;;4896214;29;20802;-75
2023/12/13 10:00:05;;;;;;;7.30;3.10;;;10.50;85.40;;;;;;4898160;29;20466;-75
2023/12/13 10:02:36;;;;;;;6.03;3.13;;;10.50;85.40;;;;;;4904248;29;20490;-75
2023/12/13 10:05:08;;;;;;;7.73;3.07;;;10.50;85.30;;;;;;4898733;29;20470;-76
2023/12/13 10:07:36;;;;;;;10.73;4.07;;;10.50;85.30;;;;;;4893791;29;20935;-75
2023/12/13 10:10:06;;;;;;;10.37;3.50;;;10.50;85.30;;;;;;4893692;29;20760;-75
2023/12/13 10:12:35;;;;;;;9.10;3.80;;;10.50;85.30;;;;;;4891864;29;20467;-75
2023/12/13 10:15:10;;;;;;;8.87;3.23;;;10.50;85.30;;;;;;4898844;29;20517;-75
2023/12/13 10:17:39;;;;;;;8.10;3.57;;;10.50;85.30;;;;;;4894193;29;20462;-75
2023/12/13 10:20:11;;;;;;;7.13;3.63;;;10.50;85.30;;;;;;4892819;29;20462;-75
2023/12/13 10:22:39;;;;;;;10.47;3.80;;;10.50;85.30;;;;;;4891850;29;20833;-75
2023/12/13 10:25:08;;;;;;;9.90;3.20;;;10.50;85.40;;;;;;4890871;29;20472;-75
2023/12/13 10:27:37;;;;;;;8.67;3.27;;;10.50;85.40;;;;;;4910213;29;20462;-75
2023/12/13 10:30:06;;;;;;;8.97;3.40;;;10.50;85.30;;;;;;4899599;29;21239;-75
2023/12/13 10:32:34;;;;;;;5.90;2.83;;;10.50;85.30;;;;;;4891874;29;20470;-75
2023/12/13 10:35:04;;;;;;;8.87;5.00;;;10.50;85.30;;;;;;4892959;29;20489;-75
2023/12/13 10:37:35;;;;;;;6.00;2.53;;;10.50;85.40;;;;;;4893762;29;20473;-75
2023/12/13 10:40:05;;;;;;;7.23;3.40;;;10.50;85.50;;;;;;4895402;29;20472;-75
2023/12/13 10:42:37;;;;;;;12.00;3.17;;;10.50;85.40;;;;;;4891372;29;20497;-75
2023/12/13 10:45:10;;;;;;;5.97;3.10;;;10.50;85.40;;;;;;4893655;29;20508;-75
2023/12/13 10:47:45;;;;;;;10.63;4.47;;;10.50;85.50;;;;;;4894351;29;20975;-75
2023/12/13 10:50:14;;;;;;;8.30;3.43;;;10.50;85.40;;;;;;4909229;29;20465;-75
2023/12/13 10:52:45;;;;;;;8.50;3.87;;;10.60;85.40;;;;;;4893106;29;20577;-75
2023/12/13 10:55:15;;;;;;;9.03;4.20;;;10.50;85.50;;;;;;4894888;29;20496;-75
2023/12/13 10:57:43;;;;;;;13.77;5.60;;;10.60;85.50;;;;;;4890205;29;20950;-75
2023/12/13 11:00:14;;;;;;;11.40;4.77;;;10.60;85.50;;;;;;4890246;29;21190;-75
2023/12/13 11:02:52;;;;;;;8.40;3.57;;;10.60;85.40;;;;;;4891818;29;20470;-75
2023/12/13 11:05:21;;;;;;;12.50;4.60;;;10.70;85.50;;;;;;4889475;29;20454;-76
2023/12/13 11:07:52;;;;;;;13.80;4.20;;;10.70;85.50;;;;;;4893710;29;20494;-75
2023/12/13 11:10:22;;;;;;;10.07;3.20;;;10.70;85.60;;;;;;4887795;29;20480;-75
2023/12/13 11:12:52;;;;;;;6.57;2.93;;;10.70;85.60;;;;;;4893437;29;20465;-75
2023/12/13 11:15:21;;;;;;;11.90;5.90;;;10.70;85.50;;;;;;4890279;29;20463;-75
2023/12/13 11:17:54;;;;;;;7.70;3.20;;;10.80;85.50;;;;;;4892579;29;20564;-75
2023/12/13 11:20:22;;;;;;;7.67;2.87;;;10.80;85.50;;;;;;4892514;29;20760;-75
2023/12/13 11:22:56;;;;;;;5.43;2.30;;;10.80;85.50;;;;;;4891512;29;20469;-75
2023/12/13 11:25:37;;;;;;;6.70;2.77;;;10.80;85.50;;;;;;4891375;29;21026;-75
2023/12/13 11:28:22;;;;;;;20.87;10.80;;;10.80;85.40;;;;;;4890177;29;20508;-75
2023/12/13 11:30:55;;;;;;;304.77;166.90;;;10.80;85.40;;;;;;4883342;29;20474;-75
2023/12/13 11:33:23;;;;;;;102.37;56.90;;;10.80;85.50;;;;;;4887801;29;21227;-75
2023/12/13 11:35:57;;;;;;;21.30;12.70;;;10.90;85.40;;;;;;4888099;29;20466;-75
2023/12/13 11:38:28;;;;;;;21.33;11.53;;;10.90;85.30;;;;;;4892827;29;20472;-75
2023/12/13 11:40:59;;;;;;;24.60;11.60;;;10.90;85.30;;;;;;4890298;29;20466;-75
2023/12/13 11:43:30;;;;;;;25.17;13.90;;;10.90;85.20;;;;;;4891400;29;20471;-75
2023/12/13 11:46:03;;;;;;;10.63;4.30;;;10.90;85.20;;;;;;4890742;29;20521;-75
2023/12/13 11:48:32;;;;;;;8.47;3.47;;;10.90;85.30;;;;;;4894526;29;20576;-75
2023/12/13 11:51:01;;;;;;;6.70;2.50;;;10.90;85.20;;;;;;4888276;29;20469;-75
2023/12/13 11:53:30;;;;;;;8.43;2.53;;;10.90;85.20;;;;;;4891600;29;20995;-75
2023/12/13 11:55:59;;;;;;;7.60;2.37;;;10.90;85.20;;;;;;4890698;29;20466;-75
2023/12/13 11:58:30;;;;;;;5.23;2.23;;;10.90;85.30;;;;;;4889922;29;20974;-74
2023/12/13 12:00:59;;;;;;;7.67;2.00;;;10.90;85.20;;;;;;4888920;29;20993;-75
2023/12/13 12:03:27;;;;;;;4.30;1.80;;;10.90;85.20;;;;;;4892639;29;20469;-75
2023/12/13 12:05:55;;;;;;;9.43;1.97;;;10.90;85.20;;;;;;4892400;29;20454;-75
2023/12/13 12:08:24;;;;;;;8.40;2.23;;;10.90;85.10;;;;;;4890549;29;20933;-75
2023/12/13 12:10:54;;;;;;;6.53;2.13;;;10.90;85.10;;;;;;4890013;29;20450;-75
2023/12/13 12:13:22;;;;;;;9.47;2.47;;;10.90;85.10;;;;;;4890945;29;20470;-75
2023/12/13 12:15:50;;;;;;;5.33;2.10;;;10.90;85.20;;;;;;4906704;29;21152;-75
2023/12/13 12:18:18;;;;;;;7.30;2.27;;;11.00;85.20;;;;;;4890381;29;20458;-75
2023/12/13 12:20:47;;;;;;;7.53;2.20;;;11.00;85.20;;;;;;4904547;29;20462;-75
2023/12/13 12:23:18;;;;;;;7.23;1.63;;;11.00;85.20;;;;;;4888609;29;20459;-75
2023/12/13 12:25:46;;;;;;;6.20;1.80;;;11.10;85.10;;;;;;4891492;29;20556;-75
2023/12/13 12:28:15;;;;;;;4.50;1.47;;;11.10;85.10;;;;;;4893089;29;20493;-75
2023/12/13 12:30:45;;;;;;;11.47;1.90;;;11.10;85.00;;;;;;4890359;29;20478;-75
2023/12/13 12:33:14;;;;;;;6.37;2.00;;;11.10;85.00;;;;;;4890612;29;20473;-75
2023/12/13 12:35:42;;;;;;;7.97;1.97;;;11.10;85.10;;;;;;4908164;29;20473;-76
2023/12/13 12:38:10;;;;;;;5.57;1.67;;;11.10;85.10;;;;;;4890898;29;20469;-75
2023/12/13 12:40:38;;;;;;;6.73;2.20;;;11.10;85.10;;;;;;4888718;29;20525;-75
2023/12/13 12:43:06;;;;;;;9.30;2.07;;;11.10;85.00;;;;;;4889338;29;20549;-75
2023/12/13 12:45:36;;;;;;;9.53;2.20;;;11.10;85.00;;;;;;4903474;29;20459;-75
2023/12/13 12:48:06;;;;;;;5.53;1.70;;;11.20;85.00;;;;;;4893187;29;20489;-75
2023/12/13 12:50:34;;;;;;;10.27;2.23;;;11.20;84.90;;;;;;4906102;29;20463;-75
2023/12/13 12:53:02;;;;;;;5.27;1.97;;;11.20;84.90;;;;;;4894419;29;20476;-76